sensor_id;sensor_type;location;lat;lon;timestamp;P1;durP1;ratioP1;P2;durP2;ratioP2
70683;SDS011;58263;48.146;11.440;2022-11-15T00:00:26;6.27;;;4.20;;
70683;SDS011;58263;48.146;11.440;2022-11-15T00:02:54;7.93;;;4.40;;
70683;SDS011;58263;48.146;11.440;2022-11-15T00:05:19;6.18;;;3.85;;
70683;SDS011;58263;48.146;11.440;2022-11-15T00:07:45;6.33;;;4.17;;
70683;SDS011;58263;48.146;11.440;2022-11-15T00:10:10;8.00;;;4.20;;
70683;SDS011;58263;48.146;11.440;2022-11-15T00:12:35;9.43;;;4.70;;
70683;SDS011;58263;48.146;11.440;2022-11-15T00:15:01;7.72;;;4.30;;
70683;SDS011;58263;48.146;11.440;2022-11-15T00:17:26;6.32;;;3.97;;
70683;SDS011;58263;48.146;11.440;2022-11-15T00:19:51;8.13;;;4.57;;
70683;SDS011;58263;48.146;11.440;2022-11-15T00:22:17;8.33;;;4.43;;
70683;SDS011;58263;48.146;11.440;2022-11-15T00:24:42;8.00;;;4.50;;
70683;SDS011;58263;48.146;11.440;2022-11-15T00:27:07;8.03;;;4.67;;
70683;SDS011;58263;48.146;11.440;2022-11-15T00:29:33;7.93;;;4.55;;
70683;SDS011;58263;48.146;11.440;2022-11-15T00:31:58;7.10;;;4.67;;
70683;SDS011;58263;48.146;11.440;2022-11-15T00:34:23;6.10;;;4.50;;
70683;SDS011;58263;48.146;11.440;2022-11-15T00:36:49;8.80;;;4.70;;
70683;SDS011;58263;48.146;11.440;2022-11-15T00:39:14;7.47;;;4.27;;
70683;SDS011;58263;48.146;11.440;2022-11-15T00:41:39;6.20;;;4.07;;
70683;SDS011;58263;48.146;11.440;2022-11-15T00:44:04;10.17;;;4.47;;
70683;SDS011;58263;48.146;11.440;2022-11-15T00:46:30;12.47;;;4.43;;
70683;SDS011;58263;48.146;11.440;2022-11-15T00:48:55;7.87;;;4.00;;
70683;SDS011;58263;48.146;11.440;2022-11-15T00:51:20;6.50;;;3.90;;
70683;SDS011;58263;48.146;11.440;2022-11-15T00:53:46;6.22;;;4.10;;
70683;SDS011;58263;48.146;11.440;2022-11-15T00:56:11;5.90;;;3.87;;
70683;SDS011;58263;48.146;11.440;2022-11-15T00:58:36;7.23;;;3.90;;
70683;SDS011;58263;48.146;11.440;2022-11-15T01:01:12;6.67;;;4.23;;
70683;SDS011;58263;48.146;11.440;2022-11-15T01:03:39;6.03;;;3.83;;
70683;SDS011;58263;48.146;11.440;2022-11-15T01:06:05;7.43;;;4.38;;
70683;SDS011;58263;48.146;11.440;2022-11-15T01:08:31;6.47;;;3.65;;
70683;SDS011;58263;48.146;11.440;2022-11-15T01:11:10;6.27;;;3.70;;
70683;SDS011;58263;48.146;11.440;2022-11-15T01:13:37;5.60;;;3.80;;
70683;SDS011;58263;48.146;11.440;2022-11-15T01:16:10;5.63;;;3.85;;
70683;SDS011;58263;48.146;11.440;2022-11-15T01:18:38;5.78;;;3.35;;
70683;SDS011;58263;48.146;11.440;2022-11-15T01:21:11;4.65;;;3.70;;
70683;SDS011;58263;48.146;11.440;2022-11-15T01:23:42;4.70;;;3.33;;
70683;SDS011;58263;48.146;11.440;2022-11-15T01:26:09;6.93;;;3.47;;
70683;SDS011;58263;48.146;11.440;2022-11-15T01:28:37;5.00;;;3.35;;
70683;SDS011;58263;48.146;11.440;2022-11-15T01:31:04;4.30;;;3.10;;
70683;SDS011;58263;48.146;11.440;2022-11-15T01:33:33;5.38;;;3.47;;
70683;SDS011;58263;48.146;11.440;2022-11-15T01:36:04;5.40;;;2.90;;
70683;SDS011;58263;48.146;11.440;2022-11-15T01:38:35;6.65;;;3.47;;
70683;SDS011;58263;48.146;11.440;2022-11-15T01:41:00;2.70;;;2.37;;
70683;SDS011;58263;48.146;11.440;2022-11-15T01:43:27;5.97;;;2.72;;
70683;SDS011;58263;48.146;11.440;2022-11-15T01:46:36;3.83;;;2.50;;
70683;SDS011;58263;48.146;11.440;2022-11-15T01:48:52;4.72;;;2.92;;
70683;SDS011;58263;48.146;11.440;2022-11-15T01:51:22;3.33;;;2.58;;
70683;SDS011;58263;48.146;11.440;2022-11-15T01:53:52;4.75;;;3.10;;
70683;SDS011;58263;48.146;11.440;2022-11-15T01:56:22;4.38;;;2.92;;
70683;SDS011;58263;48.146;11.440;2022-11-15T01:58:50;7.53;;;4.10;;
70683;SDS011;58263;48.146;11.440;2022-11-15T02:01:17;4.70;;;3.20;;
70683;SDS011;58263;48.146;11.440;2022-11-15T02:06:16;6.57;;;3.38;;
70683;SDS011;58263;48.146;11.440;2022-11-15T02:08:43;3.75;;;2.97;;
70683;SDS011;58263;48.146;11.440;2022-11-15T02:11:09;4.15;;;2.78;;
70683;SDS011;58263;48.146;11.440;2022-11-15T02:13:35;3.80;;;2.78;;
70683;SDS011;58263;48.146;11.440;2022-11-15T02:18:48;4.15;;;2.85;;
70683;SDS011;58263;48.146;11.440;2022-11-15T02:21:23;5.03;;;2.40;;
70683;SDS011;58263;48.146;11.440;2022-11-15T02:24:27;4.03;;;3.15;;
70683;SDS011;58263;48.146;11.440;2022-11-15T02:27:35;3.55;;;2.38;;
70683;SDS011;58263;48.146;11.440;2022-11-15T02:30:22;7.03;;;2.78;;
70683;SDS011;58263;48.146;11.440;2022-11-15T02:32:50;2.80;;;2.28;;
70683;SDS011;58263;48.146;11.440;2022-11-15T02:35:27;4.35;;;2.60;;
70683;SDS011;58263;48.146;11.440;2022-11-15T02:40:53;4.30;;;2.75;;
70683;SDS011;58263;48.146;11.440;2022-11-15T02:44:07;4.72;;;2.67;;
70683;SDS011;58263;48.146;11.440;2022-11-15T02:46:26;2.88;;;2.42;;
70683;SDS011;58263;48.146;11.440;2022-11-15T02:49:20;3.72;;;2.90;;
70683;SDS011;58263;48.146;11.440;2022-11-15T02:51:48;4.05;;;2.47;;
70683;SDS011;58263;48.146;11.440;2022-11-15T02:54:18;4.32;;;2.40;;
70683;SDS011;58263;48.146;11.440;2022-11-15T02:56:47;3.97;;;2.67;;
70683;SDS011;58263;48.146;11.440;2022-11-15T03:10:10;4.82;;;2.85;;
70683;SDS011;58263;48.146;11.440;2022-11-15T03:12:46;4.43;;;3.05;;
70683;SDS011;58263;48.146;11.440;2022-11-15T03:15:21;3.53;;;2.80;;
70683;SDS011;58263;48.146;11.440;2022-11-15T03:20:29;5.40;;;2.72;;
70683;SDS011;58263;48.146;11.440;2022-11-15T03:22:56;8.30;;;4.72;;
70683;SDS011;58263;48.146;11.440;2022-11-15T03:25:28;6.18;;;2.95;;
70683;SDS011;58263;48.146;11.440;2022-11-15T03:30:24;3.20;;;2.63;;
70683;SDS011;58263;48.146;11.440;2022-11-15T03:32:51;3.70;;;2.65;;
70683;SDS011;58263;48.146;11.440;2022-11-15T03:35:22;4.32;;;2.95;;
70683;SDS011;58263;48.146;11.440;2022-11-15T03:40:25;4.47;;;2.53;;
70683;SDS011;58263;48.146;11.440;2022-11-15T03:45:47;4.22;;;2.30;;
70683;SDS011;58263;48.146;11.440;2022-11-15T03:48:21;2.65;;;2.20;;
70683;SDS011;58263;48.146;11.440;2022-11-15T03:50:49;6.53;;;3.08;;
70683;SDS011;58263;48.146;11.440;2022-11-15T03:53:16;4.95;;;3.08;;
70683;SDS011;58263;48.146;11.440;2022-11-15T03:55:42;3.95;;;2.25;;
70683;SDS011;58263;48.146;11.440;2022-11-15T03:58:07;3.95;;;2.65;;
70683;SDS011;58263;48.146;11.440;2022-11-15T04:00:32;2.75;;;2.15;;
70683;SDS011;58263;48.146;11.440;2022-11-15T04:02:58;4.05;;;2.50;;
70683;SDS011;58263;48.146;11.440;2022-11-15T04:05:23;3.97;;;2.50;;
70683;SDS011;58263;48.146;11.440;2022-11-15T04:07:49;4.88;;;2.50;;
70683;SDS011;58263;48.146;11.440;2022-11-15T04:10:14;7.13;;;2.40;;
70683;SDS011;58263;48.146;11.440;2022-11-15T04:12:40;3.10;;;2.45;;
70683;SDS011;58263;48.146;11.440;2022-11-15T04:20:06;2.85;;;2.53;;
70683;SDS011;58263;48.146;11.440;2022-11-15T04:22:56;5.05;;;2.22;;
70683;SDS011;58263;48.146;11.440;2022-11-15T04:25:41;3.67;;;2.70;;
70683;SDS011;58263;48.146;11.440;2022-11-15T04:28:08;3.75;;;2.25;;
70683;SDS011;58263;48.146;11.440;2022-11-15T04:30:33;3.70;;;2.38;;
70683;SDS011;58263;48.146;11.440;2022-11-15T04:32:59;2.38;;;2.10;;
70683;SDS011;58263;48.146;11.440;2022-11-15T04:35:24;2.73;;;2.27;;
70683;SDS011;58263;48.146;11.440;2022-11-15T04:37:49;4.68;;;2.40;;
70683;SDS011;58263;48.146;11.440;2022-11-15T04:40:15;2.57;;;2.30;;
70683;SDS011;58263;48.146;11.440;2022-11-15T04:42:41;2.88;;;1.90;;
70683;SDS011;58263;48.146;11.440;2022-11-15T04:45:07;5.72;;;2.42;;
70683;SDS011;58263;48.146;11.440;2022-11-15T04:47:33;4.80;;;2.53;;
70683;SDS011;58263;48.146;11.440;2022-11-15T04:49:58;3.43;;;2.37;;
70683;SDS011;58263;48.146;11.440;2022-11-15T04:52:24;4.33;;;2.60;;
70683;SDS011;58263;48.146;11.440;2022-11-15T04:54:49;3.93;;;2.40;;
70683;SDS011;58263;48.146;11.440;2022-11-15T04:57:14;5.60;;;2.73;;
70683;SDS011;58263;48.146;11.440;2022-11-15T04:59:40;2.45;;;2.20;;
70683;SDS011;58263;48.146;11.440;2022-11-15T05:02:05;4.23;;;2.43;;
70683;SDS011;58263;48.146;11.440;2022-11-15T05:04:30;2.70;;;2.47;;
70683;SDS011;58263;48.146;11.440;2022-11-15T05:06:55;4.00;;;2.63;;
70683;SDS011;58263;48.146;11.440;2022-11-15T05:09:21;3.87;;;2.60;;
70683;SDS011;58263;48.146;11.440;2022-11-15T05:11:47;5.40;;;3.20;;
70683;SDS011;58263;48.146;11.440;2022-11-15T05:14:12;2.92;;;2.53;;
70683;SDS011;58263;48.146;11.440;2022-11-15T05:16:37;4.47;;;2.60;;
70683;SDS011;58263;48.146;11.440;2022-11-15T05:19:04;4.55;;;2.90;;
70683;SDS011;58263;48.146;11.440;2022-11-15T05:21:30;4.53;;;2.53;;
70683;SDS011;58263;48.146;11.440;2022-11-15T05:23:55;3.15;;;2.85;;
70683;SDS011;58263;48.146;11.440;2022-11-15T05:26:21;3.33;;;2.83;;
70683;SDS011;58263;48.146;11.440;2022-11-15T05:28:46;4.47;;;2.67;;
70683;SDS011;58263;48.146;11.440;2022-11-15T05:31:15;3.30;;;2.37;;
70683;SDS011;58263;48.146;11.440;2022-11-15T05:33:41;4.78;;;3.08;;
70683;SDS011;58263;48.146;11.440;2022-11-15T05:36:13;5.57;;;2.97;;
70683;SDS011;58263;48.146;11.440;2022-11-15T05:38:48;9.63;;;3.08;;
70683;SDS011;58263;48.146;11.440;2022-11-15T05:41:14;5.45;;;3.08;;
70683;SDS011;58263;48.146;11.440;2022-11-15T05:43:41;3.83;;;2.95;;
70683;SDS011;58263;48.146;11.440;2022-11-15T05:46:08;5.70;;;2.78;;
70683;SDS011;58263;48.146;11.440;2022-11-15T05:48:34;7.38;;;3.28;;
70683;SDS011;58263;48.146;11.440;2022-11-15T05:51:02;6.38;;;3.35;;
70683;SDS011;58263;48.146;11.440;2022-11-15T05:53:29;5.45;;;3.20;;
70683;SDS011;58263;48.146;11.440;2022-11-15T05:55:55;6.00;;;3.20;;
70683;SDS011;58263;48.146;11.440;2022-11-15T05:58:20;5.72;;;3.40;;
70683;SDS011;58263;48.146;11.440;2022-11-15T06:00:46;4.30;;;2.97;;
70683;SDS011;58263;48.146;11.440;2022-11-15T06:03:11;7.90;;;3.38;;
70683;SDS011;58263;48.146;11.440;2022-11-15T06:05:39;7.25;;;3.35;;
70683;SDS011;58263;48.146;11.440;2022-11-15T06:08:04;5.05;;;3.13;;
70683;SDS011;58263;48.146;11.440;2022-11-15T06:10:29;5.50;;;3.80;;
70683;SDS011;58263;48.146;11.440;2022-11-15T06:12:58;6.17;;;4.00;;
70683;SDS011;58263;48.146;11.440;2022-11-15T06:15:24;6.10;;;3.95;;
70683;SDS011;58263;48.146;11.440;2022-11-15T06:17:49;6.13;;;3.72;;
70683;SDS011;58263;48.146;11.440;2022-11-15T06:20:15;7.53;;;4.10;;
70683;SDS011;58263;48.146;11.440;2022-11-15T06:22:40;7.93;;;3.42;;
70683;SDS011;58263;48.146;11.440;2022-11-15T06:25:06;6.40;;;4.50;;
70683;SDS011;58263;48.146;11.440;2022-11-15T06:27:31;7.72;;;4.22;;
70683;SDS011;58263;48.146;11.440;2022-11-15T06:29:56;7.43;;;3.87;;
70683;SDS011;58263;48.146;11.440;2022-11-15T06:32:22;7.40;;;3.87;;
70683;SDS011;58263;48.146;11.440;2022-11-15T06:34:47;6.50;;;3.30;;
70683;SDS011;58263;48.146;11.440;2022-11-15T06:37:12;9.73;;;3.53;;
70683;SDS011;58263;48.146;11.440;2022-11-15T06:39:38;6.97;;;4.30;;
70683;SDS011;58263;48.146;11.440;2022-11-15T06:42:03;10.77;;;4.70;;
70683;SDS011;58263;48.146;11.440;2022-11-15T06:44:28;5.90;;;3.63;;
70683;SDS011;58263;48.146;11.440;2022-11-15T06:46:53;6.63;;;4.57;;
70683;SDS011;58263;48.146;11.440;2022-11-15T06:49:19;12.77;;;7.27;;
70683;SDS011;58263;48.146;11.440;2022-11-15T06:51:44;15.77;;;7.80;;
70683;SDS011;58263;48.146;11.440;2022-11-15T06:54:09;14.97;;;9.37;;
70683;SDS011;58263;48.146;11.440;2022-11-15T06:56:34;10.33;;;5.53;;
70683;SDS011;58263;48.146;11.440;2022-11-15T06:59:00;10.33;;;4.47;;
70683;SDS011;58263;48.146;11.440;2022-11-15T07:01:25;6.53;;;3.47;;
70683;SDS011;58263;48.146;11.440;2022-11-15T07:03:50;6.07;;;3.37;;
70683;SDS011;58263;48.146;11.440;2022-11-15T07:06:16;7.87;;;4.07;;
70683;SDS011;58263;48.146;11.440;2022-11-15T07:08:41;10.60;;;4.10;;
70683;SDS011;58263;48.146;11.440;2022-11-15T07:11:07;5.67;;;3.57;;
70683;SDS011;58263;48.146;11.440;2022-11-15T07:13:33;7.88;;;3.80;;
70683;SDS011;58263;48.146;11.440;2022-11-15T07:16:03;6.90;;;4.10;;
70683;SDS011;58263;48.146;11.440;2022-11-15T07:18:29;6.82;;;4.28;;
70683;SDS011;58263;48.146;11.440;2022-11-15T07:20:55;6.30;;;3.67;;
70683;SDS011;58263;48.146;11.440;2022-11-15T07:23:20;7.95;;;3.83;;
70683;SDS011;58263;48.146;11.440;2022-11-15T07:25:45;5.80;;;3.70;;
70683;SDS011;58263;48.146;11.440;2022-11-15T07:28:11;5.17;;;3.40;;
70683;SDS011;58263;48.146;11.440;2022-11-15T07:30:36;7.77;;;3.67;;
70683;SDS011;58263;48.146;11.440;2022-11-15T07:33:01;9.73;;;3.50;;
70683;SDS011;58263;48.146;11.440;2022-11-15T07:35:27;9.43;;;3.85;;
70683;SDS011;58263;48.146;11.440;2022-11-15T07:37:54;7.18;;;3.92;;
70683;SDS011;58263;48.146;11.440;2022-11-15T07:40:21;5.45;;;3.50;;
70683;SDS011;58263;48.146;11.440;2022-11-15T07:42:46;8.75;;;3.65;;
70683;SDS011;58263;48.146;11.440;2022-11-15T07:45:18;6.82;;;3.25;;
70683;SDS011;58263;48.146;11.440;2022-11-15T07:47:48;5.07;;;3.33;;
70683;SDS011;58263;48.146;11.440;2022-11-15T07:50:13;5.95;;;3.20;;
70683;SDS011;58263;48.146;11.440;2022-11-15T07:52:39;7.15;;;3.70;;
70683;SDS011;58263;48.146;11.440;2022-11-15T07:55:04;6.93;;;3.63;;
70683;SDS011;58263;48.146;11.440;2022-11-15T07:57:30;10.63;;;4.90;;
70683;SDS011;58263;48.146;11.440;2022-11-15T07:59:55;8.40;;;3.70;;
70683;SDS011;58263;48.146;11.440;2022-11-15T08:02:21;11.07;;;3.43;;
70683;SDS011;58263;48.146;11.440;2022-11-15T08:04:46;8.50;;;3.65;;
70683;SDS011;58263;48.146;11.440;2022-11-15T08:07:12;6.13;;;3.63;;
70683;SDS011;58263;48.146;11.440;2022-11-15T08:09:37;6.50;;;3.80;;
70683;SDS011;58263;48.146;11.440;2022-11-15T08:12:02;7.33;;;3.10;;
70683;SDS011;58263;48.146;11.440;2022-11-15T08:14:28;5.13;;;2.78;;
70683;SDS011;58263;48.146;11.440;2022-11-15T08:16:54;8.13;;;3.40;;
70683;SDS011;58263;48.146;11.440;2022-11-15T08:19:19;4.97;;;3.00;;
70683;SDS011;58263;48.146;11.440;2022-11-15T08:21:45;5.60;;;2.97;;
70683;SDS011;58263;48.146;11.440;2022-11-15T08:24:10;9.40;;;3.07;;
70683;SDS011;58263;48.146;11.440;2022-11-15T08:26:35;5.43;;;2.92;;
70683;SDS011;58263;48.146;11.440;2022-11-15T08:29:01;4.23;;;2.93;;
70683;SDS011;58263;48.146;11.440;2022-11-15T08:31:26;7.37;;;3.63;;
70683;SDS011;58263;48.146;11.440;2022-11-15T08:33:51;16.00;;;6.50;;
70683;SDS011;58263;48.146;11.440;2022-11-15T08:36:17;13.17;;;5.80;;
70683;SDS011;58263;48.146;11.440;2022-11-15T08:38:42;7.35;;;3.83;;
70683;SDS011;58263;48.146;11.440;2022-11-15T08:41:13;10.95;;;3.63;;
70683;SDS011;58263;48.146;11.440;2022-11-15T08:43:49;6.00;;;3.80;;
70683;SDS011;58263;48.146;11.440;2022-11-15T08:46:14;3.00;;;2.73;;
70683;SDS011;58263;48.146;11.440;2022-11-15T08:48:40;3.55;;;2.55;;
70683;SDS011;58263;48.146;11.440;2022-11-15T08:51:05;4.20;;;3.00;;
70683;SDS011;58263;48.146;11.440;2022-11-15T08:53:31;2.95;;;2.40;;
70683;SDS011;58263;48.146;11.440;2022-11-15T08:55:56;3.53;;;3.13;;
70683;SDS011;58263;48.146;11.440;2022-11-15T08:58:21;3.37;;;2.57;;
70683;SDS011;58263;48.146;11.440;2022-11-15T09:00:47;4.10;;;2.65;;
70683;SDS011;58263;48.146;11.440;2022-11-15T09:03:12;4.40;;;2.70;;
70683;SDS011;58263;48.146;11.440;2022-11-15T09:05:37;4.27;;;2.43;;
70683;SDS011;58263;48.146;11.440;2022-11-15T09:08:03;3.38;;;2.30;;
70683;SDS011;58263;48.146;11.440;2022-11-15T09:10:28;6.80;;;2.38;;
70683;SDS011;58263;48.146;11.440;2022-11-15T09:12:56;3.97;;;2.28;;
70683;SDS011;58263;48.146;11.440;2022-11-15T09:15:22;5.18;;;2.65;;
70683;SDS011;58263;48.146;11.440;2022-11-15T09:17:47;4.00;;;2.47;;
70683;SDS011;58263;48.146;11.440;2022-11-15T09:20:12;6.53;;;2.50;;
70683;SDS011;58263;48.146;11.440;2022-11-15T09:22:37;5.38;;;3.03;;
70683;SDS011;58263;48.146;11.440;2022-11-15T09:25:04;4.68;;;2.60;;
70683;SDS011;58263;48.146;11.440;2022-11-15T09:27:29;5.22;;;2.70;;
70683;SDS011;58263;48.146;11.440;2022-11-15T09:29:55;5.78;;;3.42;;
70683;SDS011;58263;48.146;11.440;2022-11-15T09:32:21;6.65;;;3.17;;
70683;SDS011;58263;48.146;11.440;2022-11-15T09:34:48;5.35;;;2.97;;
70683;SDS011;58263;48.146;11.440;2022-11-15T09:37:14;5.80;;;3.30;;
70683;SDS011;58263;48.146;11.440;2022-11-15T09:39:39;5.83;;;3.13;;
70683;SDS011;58263;48.146;11.440;2022-11-15T09:47:42;4.20;;;2.55;;
70683;SDS011;58263;48.146;11.440;2022-11-15T09:50:14;3.75;;;2.60;;
70683;SDS011;58263;48.146;11.440;2022-11-15T09:52:42;5.18;;;3.08;;
70683;SDS011;58263;48.146;11.440;2022-11-15T09:55:10;6.45;;;2.90;;
70683;SDS011;58263;48.146;11.440;2022-11-15T09:57:48;4.82;;;2.95;;
70683;SDS011;58263;48.146;11.440;2022-11-15T10:00:24;10.57;;;3.05;;
70683;SDS011;58263;48.146;11.440;2022-11-15T10:03:14;5.78;;;2.33;;
70683;SDS011;58263;48.146;11.440;2022-11-15T10:05:43;8.52;;;2.97;;
70683;SDS011;58263;48.146;11.440;2022-11-15T10:10:50;4.53;;;2.50;;
70683;SDS011;58263;48.146;11.440;2022-11-15T10:13:33;4.75;;;2.53;;
70683;SDS011;58263;48.146;11.440;2022-11-15T10:24:49;4.40;;;3.08;;
70683;SDS011;58263;48.146;11.440;2022-11-15T10:27:18;6.90;;;3.40;;
70683;SDS011;58263;48.146;11.440;2022-11-15T10:29:48;5.10;;;2.88;;
70683;SDS011;58263;48.146;11.440;2022-11-15T10:32:18;5.15;;;3.20;;
70683;SDS011;58263;48.146;11.440;2022-11-15T10:34:45;7.57;;;3.40;;
70683;SDS011;58263;48.146;11.440;2022-11-15T10:37:11;4.68;;;3.35;;
70683;SDS011;58263;48.146;11.440;2022-11-15T10:39:37;5.83;;;3.50;;
70683;SDS011;58263;48.146;11.440;2022-11-15T10:42:16;6.80;;;2.88;;
70683;SDS011;58263;48.146;11.440;2022-11-15T10:44:51;5.30;;;3.10;;
70683;SDS011;58263;48.146;11.440;2022-11-15T10:47:21;4.33;;;2.40;;
70683;SDS011;58263;48.146;11.440;2022-11-15T10:49:55;3.20;;;2.90;;
70683;SDS011;58263;48.146;11.440;2022-11-15T10:52:22;7.20;;;3.08;;
70683;SDS011;58263;48.146;11.440;2022-11-15T10:57:35;5.53;;;2.97;;
70683;SDS011;58263;48.146;11.440;2022-11-15T11:00:07;6.60;;;2.97;;
70683;SDS011;58263;48.146;11.440;2022-11-15T11:05:40;5.65;;;2.80;;
70683;SDS011;58263;48.146;11.440;2022-11-15T11:08:19;6.20;;;2.88;;
70683;SDS011;58263;48.146;11.440;2022-11-15T11:10:55;5.72;;;2.63;;
70683;SDS011;58263;48.146;11.440;2022-11-15T11:15:53;3.08;;;2.22;;
70683;SDS011;58263;48.146;11.440;2022-11-15T11:18:25;5.85;;;2.30;;
70683;SDS011;58263;48.146;11.440;2022-11-15T11:20:58;4.57;;;1.83;;
70683;SDS011;58263;48.146;11.440;2022-11-15T11:29:05;2.40;;;1.83;;
70683;SDS011;58263;48.146;11.440;2022-11-15T11:31:43;2.58;;;1.65;;
70683;SDS011;58263;48.146;11.440;2022-11-15T11:36:59;3.53;;;1.67;;
70683;SDS011;58263;48.146;11.440;2022-11-15T11:39:50;2.17;;;1.50;;
70683;SDS011;58263;48.146;11.440;2022-11-15T11:42:30;2.10;;;1.58;;
70683;SDS011;58263;48.146;11.440;2022-11-15T11:45:10;1.55;;;1.45;;
70683;SDS011;58263;48.146;11.440;2022-11-15T11:47:47;5.35;;;1.80;;
70683;SDS011;58263;48.146;11.440;2022-11-15T11:50:29;2.75;;;1.45;;
70683;SDS011;58263;48.146;11.440;2022-11-15T11:55:39;1.98;;;1.50;;
70683;SDS011;58263;48.146;11.440;2022-11-15T12:03:44;1.48;;;1.38;;
70683;SDS011;58263;48.146;11.440;2022-11-15T12:09:19;1.40;;;1.30;;
70683;SDS011;58263;48.146;11.440;2022-11-15T12:17:34;3.92;;;2.25;;
70683;SDS011;58263;48.146;11.440;2022-11-15T12:20:05;1.40;;;1.30;;
70683;SDS011;58263;48.146;11.440;2022-11-15T12:22:47;1.77;;;1.30;;
70683;SDS011;58263;48.146;11.440;2022-11-15T12:25:29;3.35;;;1.42;;
70683;SDS011;58263;48.146;11.440;2022-11-15T12:28:07;2.08;;;1.48;;
70683;SDS011;58263;48.146;11.440;2022-11-15T12:30:56;2.10;;;1.25;;
70683;SDS011;58263;48.146;11.440;2022-11-15T12:33:46;1.10;;;1.10;;
70683;SDS011;58263;48.146;11.440;2022-11-15T12:38:52;3.40;;;1.20;;
70683;SDS011;58263;48.146;11.440;2022-11-15T12:41:26;1.92;;;1.30;;
70683;SDS011;58263;48.146;11.440;2022-11-15T12:43:52;1.88;;;1.35;;
70683;SDS011;58263;48.146;11.440;2022-11-15T12:46:19;1.42;;;1.02;;
70683;SDS011;58263;48.146;11.440;2022-11-15T12:59:48;1.38;;;1.27;;
70683;SDS011;58263;48.146;11.440;2022-11-15T13:02:28;5.65;;;1.50;;
70683;SDS011;58263;48.146;11.440;2022-11-15T13:05:26;1.77;;;1.30;;
70683;SDS011;58263;48.146;11.440;2022-11-15T13:17:44;2.55;;;1.40;;
70683;SDS011;58263;48.146;11.440;2022-11-15T13:30:39;1.67;;;1.52;;
70683;SDS011;58263;48.146;11.440;2022-11-15T13:33:24;3.40;;;1.88;;
70683;SDS011;58263;48.146;11.440;2022-11-15T13:35:55;2.15;;;1.58;;
70683;SDS011;58263;48.146;11.440;2022-11-15T13:40:48;1.77;;;1.67;;
70683;SDS011;58263;48.146;11.440;2022-11-15T13:43:31;3.28;;;1.60;;
70683;SDS011;58263;48.146;11.440;2022-11-15T13:46:06;7.68;;;1.90;;
70683;SDS011;58263;48.146;11.440;2022-11-15T13:48:44;2.47;;;1.48;;
70683;SDS011;58263;48.146;11.440;2022-11-15T13:51:24;2.05;;;1.67;;
70683;SDS011;58263;48.146;11.440;2022-11-15T13:56:46;2.03;;;1.83;;
70683;SDS011;58263;48.146;11.440;2022-11-15T13:59:25;2.10;;;1.90;;
70683;SDS011;58263;48.146;11.440;2022-11-15T14:01:55;1.58;;;1.48;;
70683;SDS011;58263;48.146;11.440;2022-11-15T14:04:23;1.98;;;1.70;;
70683;SDS011;58263;48.146;11.440;2022-11-15T14:06:55;5.35;;;2.10;;
70683;SDS011;58263;48.146;11.440;2022-11-15T14:11:55;3.20;;;1.57;;
70683;SDS011;58263;48.146;11.440;2022-11-15T14:14:22;3.55;;;1.75;;
70683;SDS011;58263;48.146;11.440;2022-11-15T14:16:53;4.22;;;1.75;;
70683;SDS011;58263;48.146;11.440;2022-11-15T14:24:35;3.25;;;2.28;;
70683;SDS011;58263;48.146;11.440;2022-11-15T14:29:53;9.70;;;2.55;;
70683;SDS011;58263;48.146;11.440;2022-11-15T14:32:20;5.70;;;2.67;;
70683;SDS011;58263;48.146;11.440;2022-11-15T14:34:59;6.90;;;2.88;;
70683;SDS011;58263;48.146;11.440;2022-11-15T14:37:31;3.35;;;2.58;;
70683;SDS011;58263;48.146;11.440;2022-11-15T14:39:59;4.30;;;2.50;;
70683;SDS011;58263;48.146;11.440;2022-11-15T14:42:29;3.42;;;2.50;;
70683;SDS011;58263;48.146;11.440;2022-11-15T14:44:54;5.40;;;2.57;;
70683;SDS011;58263;48.146;11.440;2022-11-15T14:47:19;5.63;;;2.60;;
70683;SDS011;58263;48.146;11.440;2022-11-15T14:49:45;6.57;;;3.03;;
70683;SDS011;58263;48.146;11.440;2022-11-15T14:52:22;7.70;;;3.25;;
70683;SDS011;58263;48.146;11.440;2022-11-15T14:54:52;5.25;;;2.78;;
70683;SDS011;58263;48.146;11.440;2022-11-15T14:57:19;3.45;;;2.80;;
70683;SDS011;58263;48.146;11.440;2022-11-15T14:59:44;5.73;;;2.80;;
70683;SDS011;58263;48.146;11.440;2022-11-15T15:02:14;9.15;;;2.85;;
70683;SDS011;58263;48.146;11.440;2022-11-15T15:04:43;4.03;;;2.85;;
70683;SDS011;58263;48.146;11.440;2022-11-15T15:07:08;9.17;;;3.03;;
70683;SDS011;58263;48.146;11.440;2022-11-15T15:09:33;8.20;;;3.57;;
70683;SDS011;58263;48.146;11.440;2022-11-15T15:11:59;5.60;;;3.40;;
70683;SDS011;58263;48.146;11.440;2022-11-15T15:14:24;6.80;;;3.53;;
70683;SDS011;58263;48.146;11.440;2022-11-15T15:16:49;4.33;;;3.40;;
70683;SDS011;58263;48.146;11.440;2022-11-15T15:19:14;6.60;;;3.27;;
70683;SDS011;58263;48.146;11.440;2022-11-15T15:21:40;5.90;;;3.20;;
70683;SDS011;58263;48.146;11.440;2022-11-15T15:24:05;6.27;;;3.67;;
70683;SDS011;58263;48.146;11.440;2022-11-15T15:26:30;4.73;;;3.30;;
70683;SDS011;58263;48.146;11.440;2022-11-15T15:29:01;4.72;;;3.38;;
70683;SDS011;58263;48.146;11.440;2022-11-15T15:31:26;5.40;;;2.80;;
70683;SDS011;58263;48.146;11.440;2022-11-15T15:33:51;6.87;;;3.67;;
70683;SDS011;58263;48.146;11.440;2022-11-15T15:36:17;6.57;;;3.73;;
70683;SDS011;58263;48.146;11.440;2022-11-15T15:38:43;6.00;;;3.20;;
70683;SDS011;58263;48.146;11.440;2022-11-15T15:41:10;6.28;;;4.07;;
70683;SDS011;58263;48.146;11.440;2022-11-15T15:43:36;6.53;;;3.40;;
70683;SDS011;58263;48.146;11.440;2022-11-15T15:46:01;5.43;;;3.60;;
70683;SDS011;58263;48.146;11.440;2022-11-15T15:48:26;8.10;;;4.40;;
70683;SDS011;58263;48.146;11.440;2022-11-15T15:50:51;4.53;;;3.43;;
70683;SDS011;58263;48.146;11.440;2022-11-15T15:53:17;6.83;;;3.80;;
70683;SDS011;58263;48.146;11.440;2022-11-15T15:55:42;5.68;;;3.80;;
70683;SDS011;58263;48.146;11.440;2022-11-15T15:58:08;7.25;;;4.20;;
70683;SDS011;58263;48.146;11.440;2022-11-15T16:00:33;4.97;;;3.65;;
70683;SDS011;58263;48.146;11.440;2022-11-15T16:02:58;7.05;;;4.45;;
70683;SDS011;58263;48.146;11.440;2022-11-15T16:05:24;9.38;;;5.18;;
70683;SDS011;58263;48.146;11.440;2022-11-15T16:07:50;7.85;;;3.65;;
70683;SDS011;58263;48.146;11.440;2022-11-15T16:12:50;7.10;;;3.83;;
70683;SDS011;58263;48.146;11.440;2022-11-15T16:15:16;6.30;;;4.07;;
70683;SDS011;58263;48.146;11.440;2022-11-15T16:17:50;8.90;;;3.97;;
70683;SDS011;58263;48.146;11.440;2022-11-15T16:20:30;9.13;;;4.10;;
70683;SDS011;58263;48.146;11.440;2022-11-15T16:23:05;10.15;;;3.97;;
70683;SDS011;58263;48.146;11.440;2022-11-15T16:28:20;5.88;;;3.35;;
70683;SDS011;58263;48.146;11.440;2022-11-15T16:30:58;7.28;;;4.03;;
70683;SDS011;58263;48.146;11.440;2022-11-15T16:33:28;8.73;;;4.30;;
70683;SDS011;58263;48.146;11.440;2022-11-15T16:35:53;9.57;;;4.63;;
70683;SDS011;58263;48.146;11.440;2022-11-15T16:38:19;10.30;;;6.10;;
70683;SDS011;58263;48.146;11.440;2022-11-15T16:40:44;13.27;;;6.00;;
70683;SDS011;58263;48.146;11.440;2022-11-15T16:43:10;11.73;;;5.88;;
70683;SDS011;58263;48.146;11.440;2022-11-15T16:45:35;11.18;;;6.50;;
70683;SDS011;58263;48.146;11.440;2022-11-15T16:48:01;17.10;;;9.10;;
70683;SDS011;58263;48.146;11.440;2022-11-15T16:50:29;13.05;;;7.55;;
70683;SDS011;58263;48.146;11.440;2022-11-15T16:52:57;14.40;;;7.38;;
70683;SDS011;58263;48.146;11.440;2022-11-15T16:55:24;15.55;;;6.20;;
70683;SDS011;58263;48.146;11.440;2022-11-15T16:57:52;12.88;;;6.22;;
70683;SDS011;58263;48.146;11.440;2022-11-15T17:00:18;14.50;;;7.28;;
70683;SDS011;58263;48.146;11.440;2022-11-15T17:02:47;19.60;;;8.50;;